createdAt,value
2017-12-28T00:01:00.630Z,6.87
2017-12-28T00:03:31.109Z,5.33
2017-12-28T00:05:59.431Z,7.27
2017-12-28T00:08:32.667Z,4.97
2017-12-28T00:11:01.975Z,7.77
2017-12-28T00:13:30.334Z,15.37
2017-12-28T00:15:58.793Z,11.70
2017-12-28T00:18:31.853Z,11.93
2017-12-28T00:21:00.401Z,8.50
2017-12-28T00:23:29.123Z,5.60
2017-12-28T00:25:57.875Z,7.33
2017-12-28T00:28:26.359Z,12.53
2017-12-28T00:30:55.454Z,19.73
2017-12-28T00:33:24.035Z,4.03
2017-12-28T00:35:52.519Z,6.57
2017-12-28T00:38:20.926Z,6.10
2017-12-28T00:40:49.477Z,5.07
2017-12-28T00:43:19.392Z,24.23
2017-12-28T00:45:47.876Z,11.07
2017-12-28T00:48:18.240Z,8.10
2017-12-28T00:50:48.232Z,9.67
2017-12-28T00:53:19.048Z,15.37
2017-12-28T00:55:48.195Z,5.67
2017-12-28T00:58:16.623Z,14.37
2017-12-28T01:00:45.103Z,5.43
2017-12-28T01:03:13.625Z,9.30
2017-12-28T01:05:43.070Z,12.77
2017-12-28T01:08:11.569Z,13.03
2017-12-28T01:10:40.056Z,14.03
2017-12-28T01:13:12.158Z,8.53
2017-12-28T01:15:40.924Z,8.07
2017-12-28T01:18:15.537Z,12.27
2017-12-28T01:20:44.016Z,10.37
2017-12-28T01:23:12.494Z,18.43
2017-12-28T01:25:40.973Z,9.00
2017-12-28T01:28:09.393Z,9.83
2017-12-28T01:30:37.744Z,13.97
2017-12-28T01:33:06.368Z,14.30
2017-12-28T01:35:34.894Z,10.37
2017-12-28T01:38:03.292Z,18.13
2017-12-28T01:40:31.754Z,17.33
2017-12-28T01:43:02.077Z,20.50
2017-12-28T01:45:30.615Z,9.70
2017-12-28T01:48:02.630Z,14.77
2017-12-28T01:50:31.105Z,9.63
2017-12-28T01:52:59.458Z,12.27
2017-12-28T01:55:28.631Z,18.23
2017-12-28T02:00:24.996Z,16.37
2017-12-28T02:02:54.172Z,10.50
2017-12-28T02:05:22.602Z,9.60
2017-12-28T02:07:50.990Z,6.43
2017-12-28T02:10:19.362Z,6.37
2017-12-28T02:12:47.850Z,14.53
2017-12-28T02:15:16.242Z,8.57
2017-12-28T02:17:44.698Z,5.27
2017-12-28T02:20:14.030Z,10.17
2017-12-28T02:22:42.370Z,13.63
2017-12-28T02:25:10.736Z,3.93
2017-12-28T02:27:39.180Z,11.40
2017-12-28T02:30:07.636Z,10.07
2017-12-28T02:32:41.283Z,4.23
2017-12-28T02:35:10.513Z,5.23
2017-12-28T02:37:38.866Z,7.87
2017-12-28T02:40:08.050Z,3.63
2017-12-28T02:42:37.399Z,12.70
2017-12-28T02:45:06.899Z,3.73
2017-12-28T02:47:35.309Z,9.67
2017-12-28T02:50:03.681Z,4.60
2017-12-28T02:52:41.045Z,6.20
2017-12-28T02:55:09.560Z,6.37
2017-12-28T02:57:38.022Z,7.03
2017-12-28T03:00:08.394Z,2.73
2017-12-28T03:02:39.547Z,4.17
2017-12-28T03:05:08.059Z,3.07
2017-12-28T03:07:37.469Z,2.33
2017-12-28T03:10:19.764Z,2.40
2017-12-28T03:12:55.799Z,1.10
2017-12-28T03:15:29.986Z,6.40
2017-12-28T03:17:59.232Z,3.10
2017-12-28T03:20:33.142Z,6.00
2017-12-28T03:23:15.853Z,1.50
2017-12-28T03:25:44.356Z,3.43
2017-12-28T03:28:12.923Z,5.67
2017-12-28T03:30:41.404Z,3.70
2017-12-28T03:33:09.881Z,3.30
2017-12-28T03:35:38.366Z,3.40
2017-12-28T03:38:07.157Z,2.10
2017-12-28T03:40:39.235Z,3.77
2017-12-28T03:43:09.208Z,3.00
2017-12-28T03:45:37.921Z,5.13
2017-12-28T03:48:06.310Z,4.10
2017-12-28T03:50:34.884Z,8.13
2017-12-28T03:53:03.358Z,3.43
2017-12-28T03:55:31.848Z,3.10
2017-12-28T03:58:00.428Z,2.17
2017-12-28T04:00:28.914Z,2.60
2017-12-28T04:02:57.280Z,4.57
2017-12-28T04:05:26.485Z,3.93
2017-12-28T04:07:54.812Z,2.13
2017-12-28T04:10:24.123Z,4.40
2017-12-28T04:12:53.411Z,3.10
2017-12-28T04:15:25.157Z,1.77
2017-12-28T04:17:53.646Z,3.63
2017-12-28T04:20:23.712Z,2.00
2017-12-28T04:22:52.107Z,3.00
2017-12-28T04:25:20.520Z,2.90
2017-12-28T04:27:49.058Z,3.93
2017-12-28T04:30:17.532Z,2.80
2017-12-28T04:32:45.986Z,6.17
2017-12-28T04:35:15.107Z,6.33
2017-12-28T04:37:43.643Z,5.60
2017-12-28T04:40:12.173Z,4.60
2017-12-28T04:42:41.487Z,5.73
2017-12-28T04:45:10.674Z,7.07
2017-12-28T04:47:40.123Z,5.63
2017-12-28T04:50:10.194Z,4.70
2017-12-28T04:52:38.777Z,3.37
2017-12-28T04:55:07.158Z,5.17
2017-12-28T04:57:39.642Z,4.87
2017-12-28T05:00:08.116Z,4.67
2017-12-28T05:02:52.992Z,3.70
2017-12-28T05:05:21.358Z,6.73
2017-12-28T05:07:49.937Z,6.77
2017-12-28T05:10:23.751Z,3.30
2017-12-28T05:12:52.232Z,5.93
2017-12-28T05:15:20.762Z,4.93
2017-12-28T05:17:49.906Z,3.50
2017-12-28T05:20:18.811Z,6.23
2017-12-28T05:22:48.131Z,5.20
2017-12-28T05:25:16.778Z,11.03
2017-12-28T05:27:45.286Z,5.17
2017-12-28T05:30:13.733Z,9.97
2017-12-28T05:32:42.880Z,7.20
2017-12-28T05:35:11.251Z,12.33
2017-12-28T05:37:39.689Z,7.47
2017-12-28T05:40:08.169Z,8.70
2017-12-28T05:42:37.469Z,27.07
2017-12-28T05:45:05.897Z,17.87
2017-12-28T05:47:34.338Z,19.70
2017-12-28T05:50:02.818Z,13.77
2017-12-28T05:52:31.297Z,21.47
2017-12-28T05:54:59.660Z,16.23
2017-12-28T05:57:28.027Z,21.30
2017-12-28T05:59:57.180Z,15.93
2017-12-28T06:02:25.576Z,17.00
2017-12-28T06:04:54.001Z,16.87
2017-12-28T06:07:22.486Z,13.13
2017-12-28T06:09:50.962Z,11.47
2017-12-28T06:12:19.367Z,12.73
2017-12-28T06:14:47.822Z,10.87
2017-12-28T06:17:16.268Z,5.17
2017-12-28T06:19:48.062Z,8.77
2017-12-28T06:22:17.001Z,10.33
2017-12-28T06:24:45.469Z,9.87
2017-12-28T06:27:13.922Z,22.77
2017-12-28T06:29:47.978Z,19.57
2017-12-28T06:32:16.412Z,9.03
2017-12-28T06:34:44.845Z,17.83
2017-12-28T06:37:14.151Z,13.27
2017-12-28T06:39:43.799Z,9.67
2017-12-28T06:42:12.271Z,12.93
2017-12-28T06:44:40.754Z,16.67
2017-12-28T06:47:09.803Z,38.13
2017-12-28T06:49:38.243Z,20.97
2017-12-28T06:52:06.818Z,37.20
2017-12-28T06:54:44.021Z,10.57
2017-12-28T06:57:12.731Z,33.43
2017-12-28T06:59:41.181Z,15.90
2017-12-28T07:02:10.361Z,15.00
2017-12-28T07:04:38.867Z,13.07
2017-12-28T07:07:24.663Z,21.87
2017-12-28T07:09:53.211Z,12.73
2017-12-28T07:12:21.893Z,14.07
2017-12-28T07:14:57.932Z,13.87
2017-12-28T07:17:26.739Z,11.77
2017-12-28T07:19:55.162Z,11.07
2017-12-28T07:22:23.605Z,11.63
2017-12-28T07:24:53.746Z,14.90
2017-12-28T07:27:22.300Z,14.93
2017-12-28T07:29:50.852Z,13.33
2017-12-28T07:32:19.986Z,6.03
2017-12-28T07:34:48.460Z,14.80
2017-12-28T07:37:16.942Z,7.40
2017-12-28T07:39:46.460Z,2.77
2017-12-28T07:42:14.962Z,21.70
2017-12-28T07:44:50.490Z,5.50
2017-12-28T07:47:21.134Z,9.47
2017-12-28T07:49:51.225Z,12.90
2017-12-28T07:52:19.705Z,9.23
2017-12-28T07:54:48.224Z,5.97
2017-12-28T07:57:17.531Z,11.67
2017-12-28T07:59:49.447Z,17.13
2017-12-28T08:02:19.301Z,14.53
2017-12-28T08:04:49.594Z,4.13
2017-12-28T08:07:18.172Z,6.30
2017-12-28T08:09:47.102Z,6.33
2017-12-28T08:12:16.884Z,6.70
2017-12-28T08:14:51.537Z,2.43
2017-12-28T08:17:19.893Z,10.40
2017-12-28T08:19:48.593Z,3.23
2017-12-28T08:22:16.980Z,10.43
2017-12-28T08:24:51.464Z,15.10
2017-12-28T08:27:19.838Z,8.27
2017-12-28T08:29:48.319Z,6.53
2017-12-28T08:32:17.162Z,15.63
2017-12-28T08:34:46.330Z,20.50
2017-12-28T08:37:14.704Z,41.83
2017-12-28T08:39:44.909Z,6.70
2017-12-28T08:42:29.252Z,6.03
2017-12-28T08:44:57.852Z,0.80
2017-12-28T08:47:27.355Z,2.13
2017-12-28T08:49:56.855Z,1.07
2017-12-28T08:52:42.588Z,1.77
2017-12-28T08:55:12.464Z,2.17
2017-12-28T08:57:41.783Z,4.40
2017-12-28T09:00:10.233Z,1.70
2017-12-28T09:02:38.711Z,4.90
2017-12-28T09:05:07.105Z,5.67
2017-12-28T09:07:42.416Z,4.80
2017-12-28T09:10:10.917Z,1.23
2017-12-28T09:12:39.595Z,2.90
2017-12-28T09:15:11.051Z,3.17
2017-12-28T09:17:39.745Z,5.53
2017-12-28T09:20:08.214Z,8.00
2017-12-28T09:22:37.317Z,4.60
2017-12-28T09:25:06.406Z,3.30
2017-12-28T09:27:34.888Z,2.30
2017-12-28T09:30:03.480Z,0.90
2017-12-28T09:32:31.988Z,4.47
2017-12-28T09:35:00.531Z,8.20
2017-12-28T09:37:29.020Z,6.13
2017-12-28T09:40:12.453Z,8.57
2017-12-28T09:42:41.059Z,9.13
2017-12-28T09:45:09.520Z,5.40
2017-12-28T09:47:37.990Z,8.57
2017-12-28T09:50:09.451Z,1.77
2017-12-28T09:52:37.925Z,2.23
2017-12-28T09:55:06.311Z,4.03
2017-12-28T09:57:34.934Z,0.73
2017-12-28T10:00:06.335Z,0.77
2017-12-28T10:02:34.754Z,0.60
2017-12-28T10:05:03.305Z,1.07
2017-12-28T10:07:31.718Z,4.13
2017-12-28T10:10:00.260Z,2.77
2017-12-28T10:12:28.735Z,6.77
2017-12-28T10:14:57.222Z,6.80
2017-12-28T10:17:25.682Z,7.47
2017-12-28T10:19:55.209Z,0.80
2017-12-28T10:22:23.545Z,4.47
2017-12-28T10:24:52.699Z,2.83
2017-12-28T10:27:21.194Z,2.23
2017-12-28T10:29:50.357Z,1.33
2017-12-28T10:32:19.179Z,0.77
2017-12-28T10:34:47.556Z,2.97
2017-12-28T10:37:16.206Z,3.47
2017-12-28T10:39:44.719Z,2.30
2017-12-28T10:42:13.639Z,4.47
2017-12-28T10:44:43.086Z,0.70
2017-12-28T10:47:11.495Z,1.47
2017-12-28T10:49:40.044Z,2.50
2017-12-28T10:52:08.526Z,1.37
2017-12-28T10:54:36.929Z,5.10
2017-12-28T10:57:05.424Z,5.43
2017-12-28T10:59:35.237Z,1.33
2017-12-28T11:02:04.617Z,8.70
2017-12-28T11:04:33.140Z,1.90
2017-12-28T11:07:02.384Z,1.07
2017-12-28T11:09:30.795Z,3.70
2017-12-28T11:11:59.166Z,4.17
2017-12-28T11:14:27.538Z,1.23
2017-12-28T11:16:56.043Z,4.77
2017-12-28T11:19:24.787Z,1.53
2017-12-28T11:21:53.272Z,5.37
2017-12-28T11:24:30.140Z,2.13
2017-12-28T11:26:58.672Z,2.67
2017-12-28T11:29:29.006Z,3.07
2017-12-28T11:31:57.476Z,1.53
2017-12-28T11:34:26.012Z,1.10
2017-12-28T11:36:54.595Z,4.53
2017-12-28T11:39:23.082Z,2.63
2017-12-28T11:41:51.607Z,2.00
2017-12-28T11:44:20.141Z,3.00
2017-12-28T11:46:48.725Z,0.73
2017-12-28T11:49:18.074Z,4.63
2017-12-28T11:51:46.663Z,3.07
2017-12-28T11:54:15.293Z,0.73
2017-12-28T11:56:43.887Z,0.67
2017-12-28T11:59:20.286Z,1.27
2017-12-28T12:02:07.360Z,1.10
2017-12-28T12:04:41.499Z,2.23
2017-12-28T12:07:13.101Z,5.20
2017-12-28T12:09:48.058Z,2.07
2017-12-28T12:12:16.446Z,1.67
2017-12-28T12:14:47.433Z,1.20
2017-12-28T12:17:29.153Z,2.43
2017-12-28T12:19:59.702Z,14.20
2017-12-28T12:22:28.181Z,1.87
2017-12-28T12:24:56.602Z,3.70
2017-12-28T12:27:24.989Z,8.40
2017-12-28T12:29:53.557Z,9.73
2017-12-28T12:32:22.511Z,0.70
2017-12-28T12:34:50.994Z,0.87
2017-12-28T12:37:19.581Z,3.80
2017-12-28T12:39:48.069Z,2.47
2017-12-28T12:42:19.097Z,6.33
2017-12-28T12:44:47.619Z,3.80
2017-12-28T12:47:23.533Z,6.30
2017-12-28T12:49:52.659Z,2.93
2017-12-28T12:52:21.222Z,1.30
2017-12-28T12:54:49.595Z,0.60
2017-12-28T12:57:17.931Z,0.77
2017-12-28T12:59:46.401Z,2.30
2017-12-28T13:02:16.308Z,3.77
2017-12-28T13:04:45.297Z,1.87
2017-12-28T13:07:15.206Z,5.27
2017-12-28T13:09:43.663Z,0.80
2017-12-28T13:12:12.348Z,3.00
2017-12-28T13:14:40.995Z,7.67
2017-12-28T13:17:09.540Z,2.73
2017-12-28T13:19:44.056Z,2.57
2017-12-28T13:22:12.812Z,3.13
2017-12-28T13:24:41.716Z,3.60
2017-12-28T13:27:10.700Z,1.53
2017-12-28T13:29:39.191Z,1.00
2017-12-28T13:32:11.558Z,1.40
2017-12-28T13:34:39.928Z,3.63
2017-12-28T13:37:12.347Z,1.43
2017-12-28T13:39:43.265Z,3.43
2017-12-28T13:42:11.654Z,6.23
2017-12-28T13:44:50.259Z,1.50
2017-12-28T13:47:18.719Z,4.10
2017-12-28T13:49:47.095Z,0.60
2017-12-28T13:52:16.808Z,1.73
2017-12-28T13:54:45.390Z,3.80
2017-12-28T13:57:14.085Z,6.80
2017-12-28T13:59:42.716Z,0.70
2017-12-28T14:02:11.827Z,3.60
2017-12-28T14:04:41.054Z,4.90
2017-12-28T14:07:09.470Z,1.13
2017-12-28T14:09:38.032Z,2.00
2017-12-28T14:12:06.389Z,6.40
2017-12-28T14:14:34.776Z,4.27
2017-12-28T14:17:09.368Z,4.73
2017-12-28T14:19:37.903Z,6.53
2017-12-28T14:22:06.321Z,6.67
2017-12-28T14:24:35.486Z,2.43
2017-12-28T14:27:03.917Z,3.50
2017-12-28T14:29:32.300Z,9.10
2017-12-28T14:32:01.540Z,2.70
2017-12-28T14:34:29.896Z,4.20
2017-12-28T14:36:58.373Z,9.97
2017-12-28T14:39:26.856Z,7.40
2017-12-28T14:41:55.262Z,3.23
2017-12-28T14:44:23.760Z,9.23
2017-12-28T14:46:52.197Z,8.70
2017-12-28T14:49:20.676Z,7.63
2017-12-28T14:51:56.017Z,12.07
2017-12-28T14:54:24.605Z,13.30
2017-12-28T14:56:53.639Z,16.30
2017-12-28T14:59:29.823Z,7.63
2017-12-28T15:01:59.105Z,6.87
2017-12-28T15:04:28.307Z,23.00
2017-12-28T15:06:57.552Z,15.30
2017-12-28T15:09:25.912Z,13.83
2017-12-28T15:11:55.234Z,19.87
2017-12-28T15:14:23.583Z,15.63
2017-12-28T15:16:53.770Z,14.00
2017-12-28T15:19:22.178Z,17.17
2017-12-28T15:21:58.393Z,24.73
2017-12-28T15:24:26.864Z,22.33
2017-12-28T15:26:56.189Z,26.07
2017-12-28T15:29:25.413Z,34.33
2017-12-28T15:31:54.581Z,31.03
2017-12-28T15:34:25.483Z,17.70
2017-12-28T15:36:56.953Z,11.73
2017-12-28T15:39:25.414Z,22.33
2017-12-28T15:41:54.000Z,34.40
2017-12-28T15:44:22.376Z,23.53
2017-12-28T15:46:50.756Z,8.37
2017-12-28T15:49:19.393Z,32.30
2017-12-28T15:51:48.737Z,21.77
2017-12-28T15:54:18.040Z,16.63
2017-12-28T15:56:46.447Z,22.07
2017-12-28T15:59:14.945Z,46.77
2017-12-28T16:01:45.018Z,13.93
2017-12-28T16:04:26.315Z,2.67
2017-12-28T16:06:57.444Z,5.70
2017-12-28T16:09:28.090Z,12.50
2017-12-28T16:11:56.498Z,3.00
2017-12-28T16:14:25.039Z,12.07
2017-12-28T16:16:53.626Z,14.40
2017-12-28T16:19:22.030Z,17.23
2017-12-28T16:21:50.578Z,13.23
2017-12-28T16:24:19.061Z,13.27
2017-12-28T16:26:47.483Z,16.67
2017-12-28T16:29:17.087Z,14.77
2017-12-28T16:31:45.633Z,13.20
2017-12-28T16:34:14.220Z,22.00
2017-12-28T16:36:48.805Z,10.17
2017-12-28T16:39:23.365Z,19.10
2017-12-28T16:41:51.945Z,27.13
2017-12-28T16:44:20.379Z,18.60
2017-12-28T16:46:49.548Z,6.10
2017-12-28T16:49:18.104Z,5.27
2017-12-28T16:51:46.592Z,35.63
2017-12-28T16:54:15.346Z,10.63
2017-12-28T16:56:44.571Z,31.23
2017-12-28T16:59:20.724Z,16.07
2017-12-28T17:01:49.117Z,13.03
2017-12-28T17:04:17.565Z,17.73
2017-12-28T17:06:46.786Z,12.57
2017-12-28T17:09:15.207Z,7.30
2017-12-28T17:11:44.771Z,5.17
2017-12-28T17:14:13.866Z,5.70
2017-12-28T17:16:42.946Z,5.40
2017-12-28T17:19:11.646Z,11.40
2017-12-28T17:21:40.131Z,2.90
2017-12-28T17:24:27.840Z,4.13
2017-12-28T17:26:56.339Z,2.93
2017-12-28T17:29:25.642Z,9.80
2017-12-28T17:31:54.110Z,13.03
2017-12-28T17:34:22.519Z,10.50
2017-12-28T17:36:50.898Z,5.10
2017-12-28T17:39:19.320Z,7.07
2017-12-28T17:41:47.689Z,2.80
2017-12-28T17:44:17.966Z,2.90
2017-12-28T17:46:46.444Z,7.83
2017-12-28T17:49:14.880Z,0.90
2017-12-28T17:51:44.060Z,14.83
2017-12-28T17:54:14.147Z,5.30
2017-12-28T17:56:42.575Z,1.70
2017-12-28T17:59:11.012Z,3.97
2017-12-28T18:01:39.475Z,5.00
2017-12-28T18:04:07.856Z,4.47
2017-12-28T18:06:36.200Z,9.30
2017-12-28T18:09:05.573Z,2.33
2017-12-28T18:11:43.351Z,8.00
2017-12-28T18:14:11.717Z,4.20
2017-12-28T18:16:40.128Z,9.70
2017-12-28T18:19:08.498Z,3.70
2017-12-28T18:21:36.864Z,8.17
2017-12-28T18:24:12.106Z,7.30
2017-12-28T18:26:40.530Z,3.27
2017-12-28T18:29:09.764Z,5.33
2017-12-28T18:31:38.864Z,5.90
2017-12-28T18:34:07.241Z,10.50
2017-12-28T18:36:36.642Z,18.33
2017-12-28T18:39:05.227Z,13.30
2017-12-28T18:41:33.720Z,6.17
2017-12-28T18:44:02.134Z,11.83
2017-12-28T18:46:37.325Z,8.03
2017-12-28T18:49:05.911Z,19.33
2017-12-28T18:51:34.310Z,8.00
2017-12-28T18:54:08.721Z,8.13
2017-12-28T18:56:39.108Z,23.57
2017-12-28T18:59:08.266Z,17.87
2017-12-28T19:01:36.636Z,9.83
2017-12-28T19:04:06.430Z,29.47
2017-12-28T19:06:34.821Z,23.10
2017-12-28T19:09:03.544Z,22.13
2017-12-28T19:11:33.789Z,15.03
2017-12-28T19:14:02.234Z,17.67
2017-12-28T19:16:36.504Z,13.77
2017-12-28T19:19:05.173Z,17.73
2017-12-28T19:21:33.669Z,12.43
2017-12-28T19:24:15.255Z,11.57
2017-12-28T19:26:44.853Z,12.17
2017-12-28T19:29:15.805Z,10.80
2017-12-28T19:31:44.207Z,7.27
2017-12-28T19:34:12.612Z,3.33
2017-12-28T19:36:41.015Z,1.13
2017-12-28T19:39:11.501Z,1.43
2017-12-28T19:41:39.830Z,1.10
2017-12-28T19:44:08.158Z,1.93
2017-12-28T19:46:36.631Z,5.73
2017-12-28T19:49:07.071Z,3.33
2017-12-28T19:51:35.465Z,2.40
2017-12-28T19:54:04.626Z,5.93
2017-12-28T19:56:33.232Z,3.60
2017-12-28T19:59:11.092Z,2.10
2017-12-28T20:01:42.965Z,3.90
2017-12-28T20:04:11.353Z,9.17
2017-12-28T20:06:39.729Z,10.30
2017-12-28T20:09:13.794Z,8.70
2017-12-28T20:11:42.179Z,9.97
2017-12-28T20:14:10.976Z,22.90
2017-12-28T20:16:39.345Z,32.07
2017-12-28T20:19:07.776Z,13.80
2017-12-28T20:21:36.225Z,12.80
2017-12-28T20:24:04.587Z,13.07
2017-12-28T20:26:34.230Z,4.47
2017-12-28T20:29:02.787Z,2.73
2017-12-28T20:31:31.692Z,2.90
2017-12-28T20:34:01.106Z,2.33
2017-12-28T20:36:29.787Z,1.90
2017-12-28T20:38:58.231Z,1.80
2017-12-28T20:41:26.836Z,5.00
2017-12-28T20:43:55.217Z,1.70
2017-12-28T20:46:23.607Z,2.20
2017-12-28T20:48:51.952Z,2.90
2017-12-28T20:51:20.343Z,6.50
2017-12-28T20:53:49.900Z,3.47
2017-12-28T20:56:18.489Z,7.27
2017-12-28T20:59:00.875Z,5.67
2017-12-28T21:01:29.295Z,6.13
2017-12-28T21:03:58.524Z,5.57
2017-12-28T21:06:26.947Z,6.03
2017-12-28T21:08:55.542Z,2.80
2017-12-28T21:11:24.714Z,5.90
2017-12-28T21:13:59.203Z,3.13
2017-12-28T21:16:27.567Z,2.30
2017-12-28T21:18:55.974Z,3.73
2017-12-28T21:21:24.352Z,11.37
2017-12-28T21:23:52.771Z,5.90
2017-12-28T21:26:21.218Z,7.13
2017-12-28T21:28:49.599Z,3.93
2017-12-28T21:31:25.492Z,2.40
2017-12-28T21:33:53.895Z,2.80
2017-12-28T21:36:22.438Z,4.03
2017-12-28T21:38:51.688Z,4.50
2017-12-28T21:41:20.373Z,3.07
2017-12-28T21:43:48.852Z,4.23
2017-12-28T21:46:17.337Z,3.80
2017-12-28T21:48:45.818Z,1.87
2017-12-28T21:51:16.860Z,5.60
2017-12-28T21:53:47.213Z,4.40
2017-12-28T21:56:15.770Z,3.00
2017-12-28T21:58:44.254Z,3.07
2017-12-28T22:01:15.454Z,5.87
2017-12-28T22:03:58.975Z,4.93
2017-12-28T22:06:31.314Z,3.03
2017-12-28T22:09:01.109Z,2.43
2017-12-28T22:11:29.692Z,4.03
2017-12-28T22:14:00.226Z,5.23
2017-12-28T22:16:28.704Z,3.27
2017-12-28T22:18:57.840Z,5.20
2017-12-28T22:21:27.756Z,4.80
2017-12-28T22:23:56.289Z,3.03
2017-12-28T22:26:25.036Z,5.47
2017-12-28T22:28:54.767Z,5.93
2017-12-28T22:31:24.200Z,2.53
2017-12-28T22:33:52.672Z,3.40
2017-12-28T22:36:21.255Z,3.80
2017-12-28T22:38:50.888Z,4.50
2017-12-28T22:41:19.255Z,4.00
2017-12-28T22:43:54.383Z,2.67
2017-12-28T22:46:22.790Z,4.23
2017-12-28T22:48:51.240Z,4.47
2017-12-28T22:51:25.770Z,3.40
2017-12-28T22:54:00.595Z,3.43
2017-12-28T22:56:29.074Z,2.43
2017-12-28T22:59:05.202Z,4.27
2017-12-28T23:01:34.373Z,3.97
2017-12-28T23:04:04.041Z,6.67
2017-12-28T23:06:32.521Z,2.93
2017-12-28T23:09:03.254Z,4.30
2017-12-28T23:11:31.852Z,6.93
2017-12-28T23:14:01.035Z,5.40
2017-12-28T23:16:29.611Z,2.87
2017-12-28T23:19:03.164Z,4.73
2017-12-28T23:21:43.152Z,4.43
2017-12-28T23:24:11.650Z,4.40
2017-12-28T23:26:48.410Z,3.03
2017-12-28T23:29:17.007Z,6.10
2017-12-28T23:31:47.135Z,4.10
2017-12-28T23:34:15.606Z,4.20
2017-12-28T23:36:45.309Z,7.27
2017-12-28T23:39:13.749Z,2.33
2017-12-28T23:41:42.937Z,3.50
2017-12-28T23:44:11.477Z,2.47
2017-12-28T23:46:39.879Z,1.60
2017-12-28T23:49:08.350Z,2.77
2017-12-28T23:51:36.709Z,2.20
2017-12-28T23:54:06.799Z,8.93
2017-12-28T23:56:36.153Z,1.83
2017-12-28T23:59:04.570Z,5.77
